createdAt,value
2023-02-22T00:02:13.838Z,7.37
2023-02-22T00:04:43.333Z,7.57
2023-02-22T00:07:11.593Z,8.57
2023-02-22T00:09:39.683Z,7.87
2023-02-22T00:12:08.620Z,7.50
2023-02-22T00:14:36.750Z,7.50
2023-02-22T00:17:04.866Z,8.93
2023-02-22T00:19:32.965Z,6.67
2023-02-22T00:22:03.022Z,6.97
2023-02-22T00:24:36.047Z,7.53
2023-02-22T00:27:04.598Z,7.63
2023-02-22T00:29:34.302Z,7.63
2023-02-22T00:32:02.646Z,7.70
2023-02-22T00:34:30.888Z,9.23
2023-02-22T00:37:02.781Z,7.03
2023-02-22T00:39:32.344Z,6.60
2023-02-22T00:42:00.493Z,9.03
2023-02-22T00:44:28.831Z,8.77
2023-02-22T00:46:56.934Z,7.80
2023-02-22T00:49:26.078Z,8.40
2023-02-22T00:51:54.763Z,8.20
2023-02-22T00:54:23.002Z,7.67
2023-02-22T00:56:53.348Z,7.90
2023-02-22T00:59:21.527Z,7.63
2023-02-22T01:01:49.618Z,8.80
2023-02-22T01:04:18.357Z,8.27
2023-02-22T01:06:46.653Z,8.30
2023-02-22T01:09:14.818Z,7.40
2023-02-22T01:11:42.924Z,9.03
2023-02-22T01:14:12.418Z,7.67
2023-02-22T01:16:40.601Z,7.87
2023-02-22T01:19:08.777Z,8.37
2023-02-22T01:21:36.864Z,7.47
2023-02-22T01:24:05.442Z,7.57
2023-02-22T01:26:33.594Z,6.93
2023-02-22T01:29:02.190Z,8.83
2023-02-22T01:31:31.623Z,7.40
2023-02-22T01:33:59.796Z,7.50
2023-02-22T01:36:27.891Z,7.20
2023-02-22T01:38:55.982Z,7.87
2023-02-22T01:41:24.107Z,8.63
2023-02-22T01:43:52.219Z,11.03
2023-02-22T01:46:27.480Z,9.23
2023-02-22T01:49:03.073Z,8.57
2023-02-22T01:51:37.791Z,7.90
2023-02-22T01:54:13.483Z,8.10
2023-02-22T01:56:51.055Z,10.30
2023-02-22T01:59:20.040Z,10.67
2023-02-22T02:01:48.348Z,10.70
2023-02-22T02:04:25.441Z,10.97
2023-02-22T02:06:57.082Z,8.87
2023-02-22T02:09:35.382Z,9.57
2023-02-22T02:12:06.435Z,11.07
2023-02-22T02:14:40.293Z,9.30
2023-02-22T02:17:10.804Z,8.87
2023-02-22T02:19:56.744Z,10.03
2023-02-22T02:22:48.215Z,9.53
2023-02-22T02:26:00.546Z,10.27
2023-02-22T02:29:27.645Z,12.93
2023-02-22T02:32:27.309Z,14.33
2023-02-22T02:35:05.289Z,12.20
2023-02-22T02:37:48.011Z,10.73
2023-02-22T02:40:26.487Z,13.17
2023-02-22T02:43:02.504Z,11.77
2023-02-22T02:45:37.703Z,14.30
2023-02-22T02:48:11.355Z,11.03
2023-02-22T02:50:45.168Z,13.17
2023-02-22T02:53:19.004Z,14.13
2023-02-22T02:55:47.300Z,13.63
2023-02-22T02:58:21.357Z,12.33
2023-02-22T03:00:55.458Z,12.20
2023-02-22T03:04:15.851Z,12.50
2023-02-22T03:07:33.477Z,15.40
2023-02-22T03:10:22.055Z,12.53
2023-02-22T03:13:06.021Z,13.20
2023-02-22T03:15:45.734Z,17.17
2023-02-22T03:18:28.990Z,12.60
2023-02-22T03:21:11.769Z,13.90
2023-02-22T03:23:48.034Z,12.53
2023-02-22T03:26:24.877Z,12.00
2023-02-22T03:28:56.929Z,13.07
2023-02-22T03:31:30.703Z,13.03
2023-02-22T03:34:05.778Z,12.47
2023-02-22T03:36:40.648Z,13.23
2023-02-22T03:39:15.983Z,12.70
2023-02-22T03:41:51.357Z,13.37
2023-02-22T03:44:27.656Z,13.70
2023-02-22T03:47:03.031Z,13.37
2023-02-22T03:49:38.363Z,13.23
2023-02-22T03:52:09.782Z,13.60
2023-02-22T03:54:38.502Z,13.27
2023-02-22T03:57:15.016Z,14.63
2023-02-22T03:59:43.961Z,12.80
2023-02-22T04:02:12.455Z,13.73
2023-02-22T04:04:40.661Z,15.57
2023-02-22T04:07:10.118Z,15.43
2023-02-22T04:09:38.228Z,12.43
2023-02-22T04:12:07.033Z,15.53
2023-02-22T04:14:35.172Z,13.93
2023-02-22T04:17:03.342Z,13.93
2023-02-22T04:19:31.474Z,12.47
2023-02-22T04:21:59.625Z,14.57
2023-02-22T04:24:30.533Z,13.13
2023-02-22T04:26:58.815Z,12.17
2023-02-22T04:29:26.941Z,10.80
2023-02-22T04:31:55.091Z,12.43
2023-02-22T04:34:23.390Z,12.90
2023-02-22T04:36:52.365Z,11.90
2023-02-22T04:39:20.645Z,9.90
2023-02-22T04:41:50.384Z,11.93
2023-02-22T04:44:18.795Z,12.57
2023-02-22T04:46:47.548Z,13.03
2023-02-22T04:49:15.753Z,11.57
2023-02-22T04:51:43.946Z,12.57
2023-02-22T04:54:12.865Z,11.60
2023-02-22T04:56:41.000Z,12.10
2023-02-22T04:59:10.672Z,13.63
2023-02-22T05:01:40.006Z,13.13
2023-02-22T05:04:09.487Z,12.70
2023-02-22T05:06:37.879Z,14.37
2023-02-22T05:09:05.994Z,14.97
2023-02-22T05:11:34.118Z,12.87
2023-02-22T05:14:02.285Z,14.07
2023-02-22T05:16:31.970Z,14.40
2023-02-22T05:19:00.115Z,16.67
2023-02-22T05:21:28.287Z,13.60
2023-02-22T05:23:57.348Z,13.50
2023-02-22T05:26:25.517Z,15.73
2023-02-22T05:28:53.654Z,12.70
2023-02-22T05:31:21.904Z,16.67
2023-02-22T05:33:51.366Z,14.73
2023-02-22T05:36:19.520Z,15.27
2023-02-22T05:38:47.637Z,16.30
2023-02-22T05:41:16.163Z,15.97
2023-02-22T05:43:44.536Z,15.33
2023-02-22T05:46:12.881Z,14.87
2023-02-22T05:48:41.062Z,16.90
2023-02-22T05:51:10.700Z,15.00
2023-02-22T05:53:38.849Z,17.03
2023-02-22T05:56:07.837Z,15.27
2023-02-22T05:58:35.998Z,16.47
2023-02-22T06:01:04.129Z,15.73
2023-02-22T06:03:32.230Z,16.03
2023-02-22T06:06:00.363Z,15.70
2023-02-22T06:08:29.823Z,15.03
2023-02-22T06:10:58.126Z,15.53
2023-02-22T06:13:26.259Z,15.57
2023-02-22T06:15:54.438Z,15.77
2023-02-22T06:18:22.597Z,14.73
2023-02-22T06:20:50.825Z,16.80
2023-02-22T06:23:18.959Z,15.40
2023-02-22T06:25:49.261Z,16.37
2023-02-22T06:28:17.529Z,18.73
2023-02-22T06:30:46.112Z,16.23
2023-02-22T06:33:14.365Z,16.33
2023-02-22T06:35:42.487Z,15.20
2023-02-22T06:38:10.627Z,20.33
2023-02-22T06:40:38.795Z,16.17
2023-02-22T06:43:08.337Z,17.00
2023-02-22T06:45:36.472Z,15.50
2023-02-22T06:48:04.857Z,19.47
2023-02-22T06:50:35.823Z,13.73
2023-02-22T06:53:04.782Z,14.73
2023-02-22T06:55:35.339Z,19.30
2023-02-22T06:58:05.789Z,18.37
2023-02-22T07:00:35.318Z,14.97
2023-02-22T07:03:06.055Z,15.13
2023-02-22T07:05:34.238Z,14.73
2023-02-22T07:08:08.495Z,17.47
2023-02-22T07:10:38.699Z,13.00
2023-02-22T07:13:09.275Z,17.07
2023-02-22T07:15:38.808Z,17.07
2023-02-22T07:18:07.324Z,17.67
2023-02-22T07:20:36.246Z,15.77
2023-02-22T07:23:05.039Z,16.67
2023-02-22T07:25:33.122Z,14.90
2023-02-22T07:28:02.436Z,14.77
2023-02-22T07:30:34.172Z,16.57
2023-02-22T07:33:06.772Z,14.33
2023-02-22T07:35:37.588Z,17.63
2023-02-22T07:38:07.951Z,16.10
2023-02-22T07:40:37.564Z,16.03
2023-02-22T07:43:15.947Z,14.33
2023-02-22T07:45:44.182Z,16.37
2023-02-22T07:48:17.303Z,15.13
2023-02-22T07:50:45.879Z,13.63
2023-02-22T07:53:19.164Z,13.57
2023-02-22T07:55:48.969Z,14.80
2023-02-22T07:58:17.673Z,14.20
2023-02-22T08:00:48.284Z,15.50
2023-02-22T08:03:20.952Z,16.13
2023-02-22T08:05:51.958Z,13.90
2023-02-22T08:08:20.270Z,13.13
2023-02-22T08:10:49.360Z,16.30
2023-02-22T08:13:18.636Z,18.60
2023-02-22T08:15:48.000Z,14.00
2023-02-22T08:18:20.150Z,13.50
2023-02-22T08:20:51.895Z,15.30
2023-02-22T08:23:23.462Z,13.33
2023-02-22T08:25:51.977Z,15.17
2023-02-22T08:28:23.396Z,15.17
2023-02-22T08:30:52.252Z,17.00
2023-02-22T08:33:22.079Z,14.30
2023-02-22T08:35:51.623Z,13.67
2023-02-22T08:38:24.185Z,15.80
2023-02-22T08:40:52.654Z,18.27
2023-02-22T08:43:22.663Z,16.50
2023-02-22T08:45:52.423Z,16.57
2023-02-22T08:48:22.077Z,16.90
2023-02-22T08:50:50.133Z,15.27
2023-02-22T08:53:19.180Z,16.20
2023-02-22T08:55:47.500Z,16.37
2023-02-22T08:58:15.689Z,16.93
2023-02-22T09:00:44.743Z,16.43
2023-02-22T09:03:15.368Z,17.13
2023-02-22T09:05:45.794Z,15.83
2023-02-22T09:08:14.041Z,17.23
2023-02-22T09:10:42.620Z,17.57
2023-02-22T09:13:10.789Z,15.27
2023-02-22T09:15:39.882Z,15.53
2023-02-22T09:18:14.349Z,13.97
2023-02-22T09:20:44.050Z,14.30
2023-02-22T09:23:12.352Z,16.15
2023-02-22T09:25:40.771Z,16.03
2023-02-22T09:28:09.124Z,16.00
2023-02-22T09:30:38.344Z,15.27
2023-02-22T09:33:10.677Z,17.63
2023-02-22T09:35:42.119Z,16.43
2023-02-22T09:38:12.298Z,14.30
2023-02-22T09:40:46.110Z,14.43
2023-02-22T09:43:35.612Z,17.65
2023-02-22T09:46:22.879Z,14.40
2023-02-22T09:49:02.878Z,14.37
2023-02-22T09:51:41.112Z,14.73
2023-02-22T09:54:22.476Z,13.50
2023-02-22T09:56:57.304Z,13.87
2023-02-22T09:59:32.813Z,13.20
2023-02-22T10:02:22.049Z,14.17
2023-02-22T10:04:58.509Z,13.83
2023-02-22T10:07:34.465Z,16.30
2023-02-22T10:10:06.849Z,15.80
2023-02-22T10:12:49.437Z,15.43
2023-02-22T10:15:47.525Z,14.90
2023-02-22T10:19:00.162Z,14.10
2023-02-22T10:21:57.722Z,12.93
2023-02-22T10:24:42.405Z,13.60
2023-02-22T10:27:22.081Z,19.70
2023-02-22T10:29:55.742Z,13.30
2023-02-22T10:32:32.262Z,14.97
2023-02-22T10:35:05.435Z,14.55
2023-02-22T10:37:35.807Z,12.77
2023-02-22T10:40:17.746Z,11.00
2023-02-22T10:42:47.920Z,12.63
2023-02-22T10:45:26.727Z,11.90
2023-02-22T10:47:59.304Z,14.85
2023-02-22T10:50:30.541Z,15.25
2023-02-22T10:52:58.953Z,15.75
2023-02-22T10:55:27.496Z,15.40
2023-02-22T10:58:06.753Z,12.43
2023-02-22T11:00:38.229Z,15.77
2023-02-22T11:03:19.077Z,14.23
2023-02-22T11:05:47.700Z,14.55
2023-02-22T11:08:32.925Z,14.13
2023-02-22T11:11:20.060Z,13.23
2023-02-22T11:13:56.371Z,12.35
2023-02-22T11:16:32.883Z,15.50
2023-02-22T11:19:08.972Z,12.85
2023-02-22T11:21:37.343Z,14.82
2023-02-22T11:24:10.084Z,15.73
2023-02-22T11:26:43.738Z,11.35
2023-02-22T11:29:23.048Z,14.82
2023-02-22T11:31:51.984Z,14.20
2023-02-22T11:34:31.507Z,13.60
2023-02-22T11:37:30.351Z,13.15
2023-02-22T11:40:19.456Z,13.18
2023-02-22T11:42:48.387Z,12.52
2023-02-22T11:45:23.614Z,12.77
2023-02-22T11:47:55.857Z,13.38
2023-02-22T11:50:31.721Z,10.63
2023-02-22T11:53:31.116Z,11.50
2023-02-22T11:56:20.580Z,10.77
2023-02-22T11:59:03.462Z,12.82
2023-02-22T12:01:46.392Z,10.48
2023-02-22T12:04:53.077Z,11.35
2023-02-22T12:07:50.510Z,9.82
2023-02-22T12:10:39.378Z,11.32
2023-02-22T12:13:32.614Z,12.05
2023-02-22T12:16:16.921Z,12.05
2023-02-22T12:19:13.632Z,9.93
2023-02-22T12:21:49.321Z,10.82
2023-02-22T12:24:22.547Z,9.40
2023-02-22T12:26:58.650Z,10.80
2023-02-22T12:29:33.790Z,10.35
2023-02-22T12:32:11.162Z,11.18
2023-02-22T12:34:49.387Z,9.85
2023-02-22T12:37:25.238Z,10.75
2023-02-22T12:40:08.215Z,9.48
2023-02-22T12:42:52.616Z,10.38
2023-02-22T12:45:33.219Z,10.75
2023-02-22T12:48:23.350Z,10.82
2023-02-22T12:51:00.780Z,10.75
2023-02-22T12:53:38.659Z,9.43
2023-02-22T12:56:23.178Z,11.07
2023-02-22T12:59:02.822Z,10.95
2023-02-22T13:01:39.071Z,10.85
2023-02-22T13:04:20.125Z,9.15
2023-02-22T13:07:06.504Z,10.02
2023-02-22T13:10:14.290Z,9.85
2023-02-22T13:12:54.053Z,9.15
2023-02-22T13:15:31.291Z,10.00
2023-02-22T13:18:13.063Z,10.82
2023-02-22T13:20:49.893Z,10.77
2023-02-22T13:23:38.929Z,10.02
2023-02-22T13:26:19.734Z,9.73
2023-02-22T13:28:59.379Z,10.07
2023-02-22T13:31:56.615Z,11.90
2023-02-22T13:34:55.852Z,7.82
2023-02-22T13:37:55.200Z,9.15
2023-02-22T13:41:03.270Z,9.02
2023-02-22T13:44:16.113Z,10.20
2023-02-22T13:47:36.308Z,12.15
2023-02-22T13:50:53.048Z,10.05
2023-02-22T13:53:29.849Z,8.90
2023-02-22T13:56:01.671Z,9.13
2023-02-22T13:58:29.955Z,8.60
2023-02-22T14:01:00.294Z,9.40
2023-02-22T14:03:40.689Z,8.63
2023-02-22T14:06:41.507Z,8.60
2023-02-22T14:09:10.469Z,8.48
2023-02-22T14:11:52.042Z,9.85
2023-02-22T14:14:20.121Z,10.13
2023-02-22T14:17:24.691Z,9.15
2023-02-22T14:20:21.253Z,7.70
2023-02-22T14:22:52.934Z,8.98
2023-02-22T14:25:40.086Z,9.60
2023-02-22T14:28:43.375Z,8.48
2023-02-22T14:31:33.293Z,8.85
2023-02-22T14:34:10.068Z,9.98
2023-02-22T14:36:48.515Z,8.55
2023-02-22T14:39:26.720Z,10.90
2023-02-22T14:42:03.565Z,8.15
2023-02-22T14:44:40.563Z,8.82
2023-02-22T14:47:19.996Z,7.63
2023-02-22T14:49:54.773Z,7.28
2023-02-22T14:52:28.852Z,6.72
2023-02-22T14:55:12.650Z,7.65
2023-02-22T14:57:56.746Z,8.50
2023-02-22T15:00:37.402Z,7.85
2023-02-22T15:03:05.712Z,7.53
2023-02-22T15:05:39.202Z,8.68
2023-02-22T15:08:10.582Z,8.40
2023-02-22T15:10:44.773Z,8.23
2023-02-22T15:13:20.281Z,6.35
2023-02-22T15:15:59.074Z,8.00
2023-02-22T15:18:36.209Z,9.15
2023-02-22T15:21:15.470Z,6.40
2023-02-22T15:23:46.602Z,6.90
2023-02-22T15:26:21.320Z,6.97
2023-02-22T15:28:54.264Z,7.00
2023-02-22T15:31:32.715Z,6.13
2023-02-22T15:34:22.165Z,6.80
2023-02-22T15:36:54.457Z,5.80
2023-02-22T15:39:29.203Z,6.00
2023-02-22T15:42:08.259Z,6.15
2023-02-22T15:44:40.388Z,6.17
2023-02-22T15:47:17.367Z,7.50
2023-02-22T15:49:45.520Z,5.53
2023-02-22T15:52:21.792Z,7.47
2023-02-22T15:54:53.370Z,6.83
2023-02-22T15:57:25.354Z,5.73
2023-02-22T15:59:58.183Z,6.07
2023-02-22T16:02:41.546Z,5.20
2023-02-22T16:05:12.999Z,6.47
2023-02-22T16:07:45.929Z,5.70
2023-02-22T16:10:29.777Z,5.53
2023-02-22T16:13:22.118Z,6.03
2023-02-22T16:16:04.435Z,6.00
2023-02-22T16:18:37.927Z,6.97
2023-02-22T16:21:11.739Z,6.17
2023-02-22T16:23:49.250Z,5.53
2023-02-22T16:26:28.441Z,6.80
2023-02-22T16:28:58.802Z,5.30
2023-02-22T16:31:31.954Z,5.10
2023-02-22T16:34:02.664Z,6.30
2023-02-22T16:36:41.990Z,5.10
2023-02-22T16:39:20.999Z,6.83
2023-02-22T16:41:49.657Z,7.13
2023-02-22T16:44:18.641Z,6.47
2023-02-22T16:46:46.779Z,6.33
2023-02-22T16:49:16.333Z,5.40
2023-02-22T16:51:48.849Z,6.30
2023-02-22T16:54:27.180Z,5.87
2023-02-22T16:57:01.946Z,5.97
2023-02-22T16:59:33.885Z,6.77
2023-02-22T17:02:01.975Z,6.77
2023-02-22T17:04:32.008Z,6.87
2023-02-22T17:07:00.324Z,8.00
2023-02-22T17:09:28.476Z,6.87
2023-02-22T17:11:57.149Z,7.23
2023-02-22T17:14:34.577Z,8.07
2023-02-22T17:17:02.818Z,10.80
2023-02-22T17:19:32.282Z,9.00
2023-02-22T17:22:05.872Z,9.50
2023-02-22T17:24:34.118Z,10.13
2023-02-22T17:27:02.997Z,7.83
2023-02-22T17:29:31.176Z,9.73
2023-02-22T17:31:59.669Z,8.83
2023-02-22T17:34:28.041Z,9.93
2023-02-22T17:36:57.516Z,10.33
2023-02-22T17:39:27.316Z,10.60
2023-02-22T17:41:57.732Z,10.60
2023-02-22T17:44:26.238Z,9.07
2023-02-22T17:46:54.583Z,8.50
2023-02-22T17:49:22.827Z,10.10
2023-02-22T17:51:53.117Z,10.43
2023-02-22T17:54:23.005Z,10.80
2023-02-22T17:56:51.202Z,9.10
2023-02-22T17:59:19.370Z,10.50
2023-02-22T18:01:48.142Z,11.23
2023-02-22T18:04:16.520Z,11.33
2023-02-22T18:06:45.166Z,10.37
2023-02-22T18:09:14.560Z,11.00
2023-02-22T18:11:44.347Z,11.73
2023-02-22T18:14:12.417Z,12.37
2023-02-22T18:16:41.474Z,11.07
2023-02-22T18:19:09.843Z,13.23
2023-02-22T18:21:38.703Z,13.00
2023-02-22T18:24:08.123Z,13.57
2023-02-22T18:26:38.881Z,15.67
2023-02-22T18:29:11.344Z,13.03
2023-02-22T18:31:39.572Z,15.47
2023-02-22T18:34:07.677Z,16.90
2023-02-22T18:36:35.753Z,14.43
2023-02-22T18:39:04.220Z,14.40
2023-02-22T18:41:32.272Z,16.00
2023-02-22T18:44:00.827Z,16.33
2023-02-22T18:46:30.823Z,18.73
2023-02-22T18:48:59.413Z,16.23
2023-02-22T18:51:28.946Z,16.37
2023-02-22T18:54:00.407Z,17.67
2023-02-22T18:56:30.673Z,18.00
2023-02-22T18:59:01.235Z,15.57
2023-02-22T19:01:38.445Z,15.73
2023-02-22T19:04:09.659Z,17.80
2023-02-22T19:06:38.262Z,18.80
2023-02-22T19:09:08.494Z,17.40
2023-02-22T19:11:40.010Z,17.90
2023-02-22T19:14:09.502Z,19.23
2023-02-22T19:16:39.385Z,18.40
2023-02-22T19:19:07.457Z,18.97
2023-02-22T19:21:36.456Z,18.83
2023-02-22T19:24:05.452Z,17.77
2023-02-22T19:26:34.097Z,17.83
2023-02-22T19:29:06.246Z,16.10
2023-02-22T19:31:35.839Z,19.80
2023-02-22T19:34:09.685Z,18.23
2023-02-22T19:36:40.028Z,18.93
2023-02-22T19:39:08.564Z,16.90
2023-02-22T19:41:36.734Z,17.30
2023-02-22T19:44:05.676Z,18.93
2023-02-22T19:46:34.942Z,17.53
2023-02-22T19:49:05.453Z,17.50
2023-02-22T19:51:34.549Z,17.33
2023-02-22T19:54:06.026Z,17.80
2023-02-22T19:56:36.098Z,16.10
2023-02-22T19:59:12.496Z,17.57
2023-02-22T20:01:44.230Z,16.30
2023-02-22T20:04:18.381Z,16.00
2023-02-22T20:06:48.628Z,16.67
2023-02-22T20:09:20.283Z,19.37
2023-02-22T20:11:49.413Z,17.30
2023-02-22T20:14:23.436Z,19.07
2023-02-22T20:16:51.827Z,23.50
2023-02-22T20:19:22.509Z,17.93
2023-02-22T20:21:52.243Z,18.07
2023-02-22T20:24:20.796Z,19.40
2023-02-22T20:26:49.457Z,18.33
2023-02-22T20:29:18.721Z,18.70
2023-02-22T20:31:52.389Z,18.43
2023-02-22T20:34:21.952Z,16.60
2023-02-22T20:36:50.445Z,19.20
2023-02-22T20:39:18.925Z,16.20
2023-02-22T20:41:47.347Z,21.00
2023-02-22T20:44:20.099Z,17.30
2023-02-22T20:46:49.304Z,18.20
2023-02-22T20:49:21.389Z,19.03
2023-02-22T20:51:50.420Z,18.97
2023-02-22T20:54:19.204Z,21.17
2023-02-22T20:56:48.396Z,17.90
2023-02-22T20:59:19.622Z,18.53
2023-02-22T21:01:49.930Z,19.50
2023-02-22T21:04:18.282Z,19.10
2023-02-22T21:06:47.851Z,19.13
2023-02-22T21:09:20.019Z,20.53
2023-02-22T21:11:49.040Z,21.80
2023-02-22T21:14:19.737Z,20.20
2023-02-22T21:16:50.398Z,19.33
2023-02-22T21:19:28.118Z,18.30
2023-02-22T21:22:01.396Z,22.73
2023-02-22T21:24:30.797Z,18.60
2023-02-22T21:26:59.392Z,18.50
2023-02-22T21:29:28.339Z,19.60
2023-02-22T21:31:57.443Z,21.80
2023-02-22T21:34:26.215Z,17.60
2023-02-22T21:36:54.573Z,20.43
2023-02-22T21:39:28.145Z,19.20
2023-02-22T21:42:00.395Z,20.97
2023-02-22T21:44:29.289Z,21.87
2023-02-22T21:46:57.549Z,21.23
2023-02-22T21:49:25.725Z,20.23
2023-02-22T21:51:53.876Z,19.67
2023-02-22T21:54:24.055Z,18.20
2023-02-22T21:56:54.346Z,20.20
2023-02-22T21:59:23.977Z,22.10
2023-02-22T22:01:56.515Z,22.70
2023-02-22T22:04:29.446Z,22.30
2023-02-22T22:06:59.925Z,22.43
2023-02-22T22:09:32.795Z,23.40
2023-02-22T22:12:05.051Z,23.93
2023-02-22T22:14:34.999Z,23.73
2023-02-22T22:17:05.469Z,23.77
2023-02-22T22:19:39.049Z,22.17
2023-02-22T22:22:07.829Z,22.70
2023-02-22T22:24:37.992Z,22.47
2023-02-22T22:27:09.678Z,21.50
2023-02-22T22:29:37.766Z,21.70
2023-02-22T22:32:07.229Z,22.23
2023-02-22T22:34:37.748Z,23.37
2023-02-22T22:37:05.881Z,24.27
2023-02-22T22:39:34.011Z,21.67
2023-02-22T22:42:03.548Z,23.30
2023-02-22T22:44:32.799Z,20.83
2023-02-22T22:47:01.125Z,25.10
2023-02-22T22:49:31.278Z,23.30
2023-02-22T22:51:59.625Z,22.97
2023-02-22T22:54:28.815Z,23.20
2023-02-22T22:56:56.942Z,21.23
2023-02-22T22:59:27.738Z,20.17
2023-02-22T23:01:56.601Z,23.60
2023-02-22T23:04:25.480Z,20.90
2023-02-22T23:06:55.401Z,23.60
2023-02-22T23:09:26.462Z,21.53
2023-02-22T23:11:58.000Z,22.40
2023-02-22T23:14:31.114Z,21.30
2023-02-22T23:17:03.467Z,21.07
2023-02-22T23:19:32.656Z,20.10
2023-02-22T23:22:01.424Z,22.43
2023-02-22T23:24:29.603Z,20.27
2023-02-22T23:27:00.028Z,20.40
2023-02-22T23:29:30.668Z,22.07
2023-02-22T23:31:59.042Z,20.90
2023-02-22T23:34:28.894Z,19.40
2023-02-22T23:36:57.130Z,20.93
2023-02-22T23:39:27.182Z,20.37
2023-02-22T23:41:59.732Z,21.03
2023-02-22T23:44:30.066Z,19.53
2023-02-22T23:46:58.258Z,23.70
2023-02-22T23:49:37.835Z,18.63
2023-02-22T23:52:07.535Z,19.40
2023-02-22T23:54:43.629Z,21.27
2023-02-22T23:57:12.022Z,18.80
2023-02-22T23:59:41.474Z,20.87
